Yang Mei Hu — BQCG — position and weather

sailwx.info

Track history (hours):
 
Tides and Currents Weather Stations Pressure Air Temp Water Temp Dewpoint Dewpoint Depression Visibility Wind Speed Wind Dir Waves Ship Positions

Yang Mei Hu

Last reported at 2018-Feb-18 06:09 UTC. Time now 2018-Feb-19 20:18 UTC.
Position N 01°07' E 103°36'.

Length 245 m; draft 10 m.

Type: Tanker. MMSI: 413858000.

Date/timePositionNaut miles runAvg speedWind from/ knotsBaromVisibWave heightAir tempDewpointWater temp
2018-Feb-18 06:09N 01°07' E 103°36'0 0.5
2018-Feb-18 06:01N 01°07' E 103°35'0 0.4
2018-Feb-18 05:31N 01°07' E 103°36'1 1.9
2018-Feb-18 04:58N 01°06' E 103°36'1 1.5
2018-Feb-18 04:16N 01°06' E 103°37'0 0.2
2018-Feb-18 03:52N 01°06' E 103°37'0 0.1
2018-Feb-18 03:19N 01°06' E 103°37'0 0.1
2018-Feb-18 02:55N 01°06' E 103°37'0 0.1
2018-Feb-18 02:28N 01°06' E 103°37'0 0.0
2018-Feb-18 01:40N 01°06' E 103°37'0 0.0
2018-Feb-18 01:25N 01°06' E 103°37'0 0.0
2018-Feb-18 00:49N 01°06' E 103°37'0 0.0
2018-Feb-18 00:22N 01°06' E 103°37'0 0.0
2018-Feb-17 23:43N 01°06' E 103°37'0 0.0
2018-Feb-17 23:28N 01°06' E 103°37'0 0.0
2018-Feb-17 22:34N 01°06' E 103°37'0 0.0
2018-Feb-17 21:13N 01°06' E 103°37'0 0.1
2018-Feb-17 20:46N 01°06' E 103°37'0 0.2
2018-Feb-17 20:28N 01°06' E 103°37'0 0.0
2018-Feb-17 08:06N 01°07' E 103°37'0 0.8
2018-Feb-17 07:58N 01°06' E 103°37'1 2.1
2018-Feb-17 07:30N 01°07' E 103°38'3 6.8
2018-Feb-17 07:00N 01°10' E 103°39'3 5.2
2018-Feb-17 06:30N 01°10' E 103°42'5 8.8
2018-Feb-17 06:00N 01°09' E 103°46'510.2
2018-Feb-17 05:31N 01°11' E 103°51'510.8
2018-Feb-17 05:00N 01°14' E 103°55'610.3
2018-Feb-17 04:28N 01°16' E 104°01'5 8.8
2018-Feb-17 03:55N 01°18' E 104°05'0 0.0
2018-Feb-16 09:35N 01°18' E 104°05'0 0.1
2018-Feb-16 09:30N 01°18' E 104°05'0 0.0
2018-Feb-16 09:00N 01°18' E 104°05'0 0.1
2018-Feb-16 08:30N 01°18' E 104°05'0 0.0
2018-Feb-16 07:54N 01°18' E 104°05'0 0.1
2018-Feb-16 07:28N 01°18' E 104°05'0 0.2
2018-Feb-16 06:59N 01°18' E 104°05'2 3.0
2018-Feb-16 06:21N 01°17' E 104°07'  
Track history (hours):
 
Tides and Currents Weather Stations Pressure Air Temp Water Temp Dewpoint Dewpoint Depression Visibility Wind Speed Wind Dir Waves Ship Positions

Yang Mei Hu

Last reported at 2018-Feb-18 06:09 UTC. Time now 2018-Feb-19 20:18 UTC.
Position N 01°07' E 103°36'.

Length 245 m; draft 10 m.

Type: Tanker. MMSI: 413858000.

Date/timePositionNaut miles runAvg speedWind from/ knotsBaromVisibWave heightAir tempDewpointWater temp
2018-Feb-18 06:09N 01°07' E 103°36'0 0.5
2018-Feb-18 06:01N 01°07' E 103°35'0 0.4
2018-Feb-18 05:31N 01°07' E 103°36'1 1.9
2018-Feb-18 04:58N 01°06' E 103°36'1 1.5
2018-Feb-18 04:16N 01°06' E 103°37'0 0.2
2018-Feb-18 03:52N 01°06' E 103°37'0 0.1
2018-Feb-18 03:19N 01°06' E 103°37'0 0.1
2018-Feb-18 02:55N 01°06' E 103°37'0 0.1
2018-Feb-18 02:28N 01°06' E 103°37'0 0.0
2018-Feb-18 01:40N 01°06' E 103°37'0 0.0
2018-Feb-18 01:25N 01°06' E 103°37'0 0.0
2018-Feb-18 00:49N 01°06' E 103°37'0 0.0
2018-Feb-18 00:22N 01°06' E 103°37'0 0.0
2018-Feb-17 23:43N 01°06' E 103°37'0 0.0
2018-Feb-17 23:28N 01°06' E 103°37'0 0.0
2018-Feb-17 22:34N 01°06' E 103°37'0 0.0
2018-Feb-17 21:13N 01°06' E 103°37'0 0.1
2018-Feb-17 20:46N 01°06' E 103°37'0 0.2
2018-Feb-17 20:28N 01°06' E 103°37'0 0.0
2018-Feb-17 08:06N 01°07' E 103°37'0 0.8
2018-Feb-17 07:58N 01°06' E 103°37'1 2.1
2018-Feb-17 07:30N 01°07' E 103°38'3 6.8
2018-Feb-17 07:00N 01°10' E 103°39'3 5.2
2018-Feb-17 06:30N 01°10' E 103°42'5 8.8
2018-Feb-17 06:00N 01°09' E 103°46'510.2
2018-Feb-17 05:31N 01°11' E 103°51'510.8
2018-Feb-17 05:00N 01°14' E 103°55'610.3
2018-Feb-17 04:28N 01°16' E 104°01'5 8.8
2018-Feb-17 03:55N 01°18' E 104°05'0 0.0
2018-Feb-16 09:35N 01°18' E 104°05'0 0.1
2018-Feb-16 09:30N 01°18' E 104°05'0 0.0
2018-Feb-16 09:00N 01°18' E 104°05'0 0.1
2018-Feb-16 08:30N 01°18' E 104°05'0 0.0
2018-Feb-16 07:54N 01°18' E 104°05'0 0.1
2018-Feb-16 07:28N 01°18' E 104°05'0 0.2
2018-Feb-16 06:59N 01°18' E 104°05'2 3.0
2018-Feb-16 06:21N 01°17' E 104°07'  

Dump ship's entire track history